sensor_id;sensor_type;location;lat;lon;timestamp;temperature;humidity
30250;DHT22;17064;47.974;13.826;2024-03-25T00:03:47;3.40;99.90
30250;DHT22;17064;47.974;13.826;2024-03-25T00:08:47;3.30;99.90
30250;DHT22;17064;47.974;13.826;2024-03-25T00:13:48;3.20;99.90
30250;DHT22;17064;47.974;13.826;2024-03-25T00:18:48;3.10;99.90
30250;DHT22;17064;47.974;13.826;2024-03-25T00:23:49;3.00;99.90
30250;DHT22;17064;47.974;13.826;2024-03-25T00:28:49;2.90;99.90
30250;DHT22;17064;47.974;13.826;2024-03-25T00:33:50;2.80;99.90
30250;DHT22;17064;47.974;13.826;2024-03-25T00:38:51;2.80;99.90
30250;DHT22;17064;47.974;13.826;2024-03-25T00:43:51;2.60;99.90
30250;DHT22;17064;47.974;13.826;2024-03-25T00:48:52;2.60;99.90
30250;DHT22;17064;47.974;13.826;2024-03-25T00:53:52;2.50;99.90
30250;DHT22;17064;47.974;13.826;2024-03-25T00:58:53;2.50;99.90
30250;DHT22;17064;47.974;13.826;2024-03-25T01:03:53;2.60;99.90
30250;DHT22;17064;47.974;13.826;2024-03-25T01:08:54;2.60;99.90
30250;DHT22;17064;47.974;13.826;2024-03-25T01:13:54;2.60;99.90
30250;DHT22;17064;47.974;13.826;2024-03-25T01:18:55;2.70;99.90
30250;DHT22;17064;47.974;13.826;2024-03-25T01:23:56;2.70;99.90
30250;DHT22;17064;47.974;13.826;2024-03-25T01:28:57;2.80;99.90
30250;DHT22;17064;47.974;13.826;2024-03-25T01:33:57;2.90;99.90
30250;DHT22;17064;47.974;13.826;2024-03-25T01:38:58;2.90;99.90
30250;DHT22;17064;47.974;13.826;2024-03-25T01:43:59;2.90;99.90
30250;DHT22;17064;47.974;13.826;2024-03-25T01:48:59;2.90;99.90
30250;DHT22;17064;47.974;13.826;2024-03-25T01:54:00;2.90;99.90
30250;DHT22;17064;47.974;13.826;2024-03-25T01:59:01;2.90;99.90
30250;DHT22;17064;47.974;13.826;2024-03-25T02:04:02;3.00;99.90
30250;DHT22;17064;47.974;13.826;2024-03-25T02:09:02;3.10;99.90
30250;DHT22;17064;47.974;13.826;2024-03-25T02:14:04;3.10;99.90
30250;DHT22;17064;47.974;13.826;2024-03-25T02:19:05;3.20;99.90
30250;DHT22;17064;47.974;13.826;2024-03-25T02:24:05;3.20;99.90
30250;DHT22;17064;47.974;13.826;2024-03-25T02:29:09;3.30;99.90
30250;DHT22;17064;47.974;13.826;2024-03-25T02:34:10;3.30;99.90
30250;DHT22;17064;47.974;13.826;2024-03-25T02:39:10;3.40;99.90
30250;DHT22;17064;47.974;13.826;2024-03-25T02:44:11;3.40;99.90
30250;DHT22;17064;47.974;13.826;2024-03-25T02:49:12;3.40;99.90
30250;DHT22;17064;47.974;13.826;2024-03-25T02:54:12;3.40;99.90
30250;DHT22;17064;47.974;13.826;2024-03-25T02:59:14;3.50;99.90
30250;DHT22;17064;47.974;13.826;2024-03-25T03:04:14;3.50;99.90
30250;DHT22;17064;47.974;13.826;2024-03-25T03:09:15;3.50;99.90
30250;DHT22;17064;47.974;13.826;2024-03-25T03:14:15;3.60;99.90
30250;DHT22;17064;47.974;13.826;2024-03-25T03:19:16;3.60;99.90
30250;DHT22;17064;47.974;13.826;2024-03-25T03:24:16;3.60;99.90
30250;DHT22;17064;47.974;13.826;2024-03-25T03:29:18;3.60;99.90
30250;DHT22;17064;47.974;13.826;2024-03-25T03:34:19;3.60;99.90
30250;DHT22;17064;47.974;13.826;2024-03-25T03:39:19;3.50;99.90
30250;DHT22;17064;47.974;13.826;2024-03-25T03:44:20;3.50;99.90
30250;DHT22;17064;47.974;13.826;2024-03-25T03:49:21;3.60;99.90
30250;DHT22;17064;47.974;13.826;2024-03-25T03:54:21;3.60;99.90
30250;DHT22;17064;47.974;13.826;2024-03-25T03:59:22;3.60;99.90
30250;DHT22;17064;47.974;13.826;2024-03-25T04:04:22;3.60;99.90
30250;DHT22;17064;47.974;13.826;2024-03-25T04:09:23;3.50;99.90
30250;DHT22;17064;47.974;13.826;2024-03-25T04:14:27;3.40;99.90
30250;DHT22;17064;47.974;13.826;2024-03-25T04:19:27;3.50;99.90
30250;DHT22;17064;47.974;13.826;2024-03-25T04:24:28;3.50;99.90
30250;DHT22;17064;47.974;13.826;2024-03-25T04:29:28;3.50;99.90
30250;DHT22;17064;47.974;13.826;2024-03-25T04:34:29;3.60;99.90
30250;DHT22;17064;47.974;13.826;2024-03-25T04:39:30;3.60;99.90
30250;DHT22;17064;47.974;13.826;2024-03-25T04:44:31;3.60;99.90
30250;DHT22;17064;47.974;13.826;2024-03-25T04:49:31;3.60;99.90
30250;DHT22;17064;47.974;13.826;2024-03-25T04:54:32;3.60;99.90
30250;DHT22;17064;47.974;13.826;2024-03-25T04:59:32;3.60;99.90
30250;DHT22;17064;47.974;13.826;2024-03-25T05:04:34;3.60;99.90
30250;DHT22;17064;47.974;13.826;2024-03-25T05:09:34;3.60;99.90
30250;DHT22;17064;47.974;13.826;2024-03-25T05:14:35;3.70;99.90
30250;DHT22;17064;47.974;13.826;2024-03-25T05:19:35;3.70;99.90
30250;DHT22;17064;47.974;13.826;2024-03-25T05:24:36;3.70;99.90
30250;DHT22;17064;47.974;13.826;2024-03-25T05:29:36;3.70;99.90
30250;DHT22;17064;47.974;13.826;2024-03-25T05:34:37;3.80;99.90
30250;DHT22;17064;47.974;13.826;2024-03-25T05:39:37;3.80;99.90
30250;DHT22;17064;47.974;13.826;2024-03-25T05:44:38;3.80;99.90
30250;DHT22;17064;47.974;13.826;2024-03-25T05:49:38;3.80;99.90
30250;DHT22;17064;47.974;13.826;2024-03-25T05:54:39;3.80;99.90
30250;DHT22;17064;47.974;13.826;2024-03-25T05:59:40;3.80;99.90
30250;DHT22;17064;47.974;13.826;2024-03-25T06:04:40;3.80;99.90
30250;DHT22;17064;47.974;13.826;2024-03-25T06:09:41;4.00;99.90
30250;DHT22;17064;47.974;13.826;2024-03-25T06:14:41;4.00;99.90
30250;DHT22;17064;47.974;13.826;2024-03-25T06:19:44;4.10;99.90
30250;DHT22;17064;47.974;13.826;2024-03-25T06:24:44;4.20;99.90
30250;DHT22;17064;47.974;13.826;2024-03-25T06:29:45;4.30;99.90
30250;DHT22;17064;47.974;13.826;2024-03-25T06:34:46;4.40;99.90
30250;DHT22;17064;47.974;13.826;2024-03-25T06:39:47;4.60;99.90
30250;DHT22;17064;47.974;13.826;2024-03-25T06:44:47;4.70;99.90
30250;DHT22;17064;47.974;13.826;2024-03-25T06:49:50;4.90;99.90
30250;DHT22;17064;47.974;13.826;2024-03-25T06:54:51;5.10;99.90
30250;DHT22;17064;47.974;13.826;2024-03-25T06:59:51;5.30;99.90
30250;DHT22;17064;47.974;13.826;2024-03-25T07:04:52;5.30;99.90
30250;DHT22;17064;47.974;13.826;2024-03-25T07:09:52;5.30;99.90
30250;DHT22;17064;47.974;13.826;2024-03-25T07:14:54;5.30;99.90
30250;DHT22;17064;47.974;13.826;2024-03-25T07:19:54;5.40;99.90
30250;DHT22;17064;47.974;13.826;2024-03-25T07:24:56;5.60;99.90
30250;DHT22;17064;47.974;13.826;2024-03-25T07:29:56;5.80;99.90
30250;DHT22;17064;47.974;13.826;2024-03-25T07:34:57;6.10;99.90
30250;DHT22;17064;47.974;13.826;2024-03-25T07:39:57;6.30;99.90
30250;DHT22;17064;47.974;13.826;2024-03-25T07:44:58;6.40;99.90
30250;DHT22;17064;47.974;13.826;2024-03-25T07:49:59;6.60;99.90
30250;DHT22;17064;47.974;13.826;2024-03-25T07:54:59;7.00;99.90
30250;DHT22;17064;47.974;13.826;2024-03-25T08:00:00;7.20;99.90
30250;DHT22;17064;47.974;13.826;2024-03-25T08:05:00;7.40;99.90
30250;DHT22;17064;47.974;13.826;2024-03-25T08:10:01;7.60;99.90
30250;DHT22;17064;47.974;13.826;2024-03-25T08:15:04;7.70;99.90
30250;DHT22;17064;47.974;13.826;2024-03-25T08:20:04;7.30;99.90
30250;DHT22;17064;47.974;13.826;2024-03-25T08:25:05;6.80;99.90
30250;DHT22;17064;47.974;13.826;2024-03-25T08:30:07;6.30;99.90
30250;DHT22;17064;47.974;13.826;2024-03-25T08:35:07;5.90;99.90
30250;DHT22;17064;47.974;13.826;2024-03-25T08:40:09;5.60;99.90
30250;DHT22;17064;47.974;13.826;2024-03-25T08:45:09;5.50;99.90
30250;DHT22;17064;47.974;13.826;2024-03-25T08:50:10;5.50;99.90
30250;DHT22;17064;47.974;13.826;2024-03-25T08:55:11;5.60;99.90
30250;DHT22;17064;47.974;13.826;2024-03-25T09:00:12;5.50;99.90
30250;DHT22;17064;47.974;13.826;2024-03-25T09:05:15;5.60;99.90
30250;DHT22;17064;47.974;13.826;2024-03-25T09:10:18;5.50;99.90
30250;DHT22;17064;47.974;13.826;2024-03-25T09:15:37;5.50;99.90
30250;DHT22;17064;47.974;13.826;2024-03-25T09:20:39;5.40;99.90
30250;DHT22;17064;47.974;13.826;2024-03-25T09:25:40;5.50;99.90
30250;DHT22;17064;47.974;13.826;2024-03-25T09:30:40;5.50;99.90
30250;DHT22;17064;47.974;13.826;2024-03-25T09:35:41;5.60;99.90
30250;DHT22;17064;47.974;13.826;2024-03-25T09:40:41;6.50;99.90
30250;DHT22;17064;47.974;13.826;2024-03-25T09:45:42;7.50;99.90
30250;DHT22;17064;47.974;13.826;2024-03-25T09:50:43;8.60;99.90
30250;DHT22;17064;47.974;13.826;2024-03-25T09:55:46;9.60;99.90
30250;DHT22;17064;47.974;13.826;2024-03-25T10:00:46;9.90;99.90
30250;DHT22;17064;47.974;13.826;2024-03-25T10:05:47;9.60;99.90
30250;DHT22;17064;47.974;13.826;2024-03-25T10:10:48;9.30;99.90
30250;DHT22;17064;47.974;13.826;2024-03-25T10:15:49;9.10;99.90
30250;DHT22;17064;47.974;13.826;2024-03-25T10:20:50;8.90;99.90
30250;DHT22;17064;47.974;13.826;2024-03-25T10:25:54;8.80;99.90
30250;DHT22;17064;47.974;13.826;2024-03-25T10:30:55;9.00;99.90
30250;DHT22;17064;47.974;13.826;2024-03-25T10:35:56;9.30;99.90
30250;DHT22;17064;47.974;13.826;2024-03-25T10:40:58;9.50;99.90
30250;DHT22;17064;47.974;13.826;2024-03-25T10:45:59;10.00;99.90
30250;DHT22;17064;47.974;13.826;2024-03-25T10:51:00;10.10;99.90
30250;DHT22;17064;47.974;13.826;2024-03-25T10:56:01;10.10;99.90
30250;DHT22;17064;47.974;13.826;2024-03-25T11:01:05;10.00;99.90
30250;DHT22;17064;47.974;13.826;2024-03-25T11:06:06;10.10;99.90
30250;DHT22;17064;47.974;13.826;2024-03-25T11:11:06;10.10;99.90
30250;DHT22;17064;47.974;13.826;2024-03-25T11:16:07;10.60;99.90
30250;DHT22;17064;47.974;13.826;2024-03-25T11:21:12;10.70;99.90
30250;DHT22;17064;47.974;13.826;2024-03-25T11:26:19;10.80;99.90
30250;DHT22;17064;47.974;13.826;2024-03-25T11:31:20;10.80;95.30
30250;DHT22;17064;47.974;13.826;2024-03-25T11:36:21;10.90;98.50
30250;DHT22;17064;47.974;13.826;2024-03-25T11:41:25;10.80;98.00
30250;DHT22;17064;47.974;13.826;2024-03-25T11:46:26;10.50;96.60
30250;DHT22;17064;47.974;13.826;2024-03-25T11:51:26;10.70;99.90
30250;DHT22;17064;47.974;13.826;2024-03-25T11:56:27;10.90;96.50
30250;DHT22;17064;47.974;13.826;2024-03-25T12:01:27;11.30;93.10
30250;DHT22;17064;47.974;13.826;2024-03-25T12:06:28;12.10;95.60
30250;DHT22;17064;47.974;13.826;2024-03-25T12:11:29;12.90;81.20
30250;DHT22;17064;47.974;13.826;2024-03-25T12:16:29;13.40;83.10
30250;DHT22;17064;47.974;13.826;2024-03-25T12:21:32;13.60;78.10
30250;DHT22;17064;47.974;13.826;2024-03-25T12:26:32;13.20;69.60
30250;DHT22;17064;47.974;13.826;2024-03-25T12:31:34;12.90;78.70
30250;DHT22;17064;47.974;13.826;2024-03-25T12:36:35;12.80;72.30
30250;DHT22;17064;47.974;13.826;2024-03-25T12:41:35;13.00;74.20
30250;DHT22;17064;47.974;13.826;2024-03-25T12:46:36;13.40;69.60
30250;DHT22;17064;47.974;13.826;2024-03-25T12:51:37;13.40;70.00
30250;DHT22;17064;47.974;13.826;2024-03-25T12:56:37;13.20;70.60
30250;DHT22;17064;47.974;13.826;2024-03-25T13:01:38;12.90;68.60
30250;DHT22;17064;47.974;13.826;2024-03-25T13:06:38;12.90;64.10
30250;DHT22;17064;47.974;13.826;2024-03-25T13:11:39;13.10;69.50
30250;DHT22;17064;47.974;13.826;2024-03-25T13:16:39;14.00;72.40
30250;DHT22;17064;47.974;13.826;2024-03-25T13:21:40;14.40;61.30
30250;DHT22;17064;47.974;13.826;2024-03-25T13:26:41;14.50;65.90
30250;DHT22;17064;47.974;13.826;2024-03-25T13:31:42;14.60;63.00
30250;DHT22;17064;47.974;13.826;2024-03-25T13:36:42;14.00;59.80
30250;DHT22;17064;47.974;13.826;2024-03-25T13:41:43;13.60;61.60
30250;DHT22;17064;47.974;13.826;2024-03-25T13:46:45;13.70;60.70
30250;DHT22;17064;47.974;13.826;2024-03-25T13:51:45;14.20;59.30
30250;DHT22;17064;47.974;13.826;2024-03-25T13:56:46;14.60;57.20
30250;DHT22;17064;47.974;13.826;2024-03-25T14:01:47;15.00;54.00
30250;DHT22;17064;47.974;13.826;2024-03-25T14:06:48;15.50;53.40
30250;DHT22;17064;47.974;13.826;2024-03-25T14:11:49;15.50;54.30
30250;DHT22;17064;47.974;13.826;2024-03-25T14:16:50;15.20;51.20
30250;DHT22;17064;47.974;13.826;2024-03-25T14:21:51;15.00;52.00
30250;DHT22;17064;47.974;13.826;2024-03-25T14:26:51;15.40;52.10
30250;DHT22;17064;47.974;13.826;2024-03-25T14:31:52;15.40;52.30
30250;DHT22;17064;47.974;13.826;2024-03-25T14:36:53;15.70;51.80
30250;DHT22;17064;47.974;13.826;2024-03-25T14:41:54;16.00;50.70
30250;DHT22;17064;47.974;13.826;2024-03-25T14:46:55;16.20;49.70
30250;DHT22;17064;47.974;13.826;2024-03-25T14:51:57;15.70;50.70
30250;DHT22;17064;47.974;13.826;2024-03-25T14:56:58;15.10;50.50
30250;DHT22;17064;47.974;13.826;2024-03-25T15:02:01;14.40;50.30
30250;DHT22;17064;47.974;13.826;2024-03-25T15:07:01;13.50;52.10
30250;DHT22;17064;47.974;13.826;2024-03-25T15:12:02;12.60;53.50
30250;DHT22;17064;47.974;13.826;2024-03-25T15:17:02;12.10;56.00
30250;DHT22;17064;47.974;13.826;2024-03-25T15:22:03;11.80;57.30
30250;DHT22;17064;47.974;13.826;2024-03-25T15:27:04;11.40;56.80
30250;DHT22;17064;47.974;13.826;2024-03-25T15:32:05;11.20;57.50
30250;DHT22;17064;47.974;13.826;2024-03-25T15:37:06;11.00;59.10
30250;DHT22;17064;47.974;13.826;2024-03-25T15:42:06;10.90;58.60
30250;DHT22;17064;47.974;13.826;2024-03-25T15:47:07;10.80;59.40
30250;DHT22;17064;47.974;13.826;2024-03-25T15:52:08;10.70;60.00
30250;DHT22;17064;47.974;13.826;2024-03-25T15:57:08;10.60;60.20
30250;DHT22;17064;47.974;13.826;2024-03-25T16:02:09;10.40;65.30
30250;DHT22;17064;47.974;13.826;2024-03-25T16:07:10;10.10;65.20
30250;DHT22;17064;47.974;13.826;2024-03-25T16:12:11;9.80;66.00
30250;DHT22;17064;47.974;13.826;2024-03-25T16:17:11;9.50;70.40
30250;DHT22;17064;47.974;13.826;2024-03-25T16:22:12;9.40;68.90
30250;DHT22;17064;47.974;13.826;2024-03-25T16:27:12;9.30;70.70
30250;DHT22;17064;47.974;13.826;2024-03-25T16:32:13;9.10;73.30
30250;DHT22;17064;47.974;13.826;2024-03-25T16:37:13;8.90;74.60
30250;DHT22;17064;47.974;13.826;2024-03-25T16:42:14;8.70;75.50
30250;DHT22;17064;47.974;13.826;2024-03-25T16:47:14;8.50;78.20
30250;DHT22;17064;47.974;13.826;2024-03-25T16:52:15;8.30;80.90
30250;DHT22;17064;47.974;13.826;2024-03-25T16:57:16;8.10;84.70
30250;DHT22;17064;47.974;13.826;2024-03-25T17:02:16;7.90;85.20
30250;DHT22;17064;47.974;13.826;2024-03-25T17:07:17;7.80;85.70
30250;DHT22;17064;47.974;13.826;2024-03-25T17:12:18;7.70;89.10
30250;DHT22;17064;47.974;13.826;2024-03-25T17:17:18;7.50;90.30
30250;DHT22;17064;47.974;13.826;2024-03-25T17:22:19;7.40;91.90
30250;DHT22;17064;47.974;13.826;2024-03-25T17:27:20;7.10;94.10
30250;DHT22;17064;47.974;13.826;2024-03-25T17:32:21;6.90;97.90
30250;DHT22;17064;47.974;13.826;2024-03-25T17:37:21;6.60;99.90
30250;DHT22;17064;47.974;13.826;2024-03-25T17:42:22;6.40;99.90
30250;DHT22;17064;47.974;13.826;2024-03-25T17:47:23;6.20;99.90
30250;DHT22;17064;47.974;13.826;2024-03-25T17:52:24;6.10;99.90
30250;DHT22;17064;47.974;13.826;2024-03-25T17:57:24;5.90;99.90
30250;DHT22;17064;47.974;13.826;2024-03-25T18:02:25;5.80;99.90
30250;DHT22;17064;47.974;13.826;2024-03-25T18:07:25;5.80;99.90
30250;DHT22;17064;47.974;13.826;2024-03-25T18:12:26;5.70;99.90
30250;DHT22;17064;47.974;13.826;2024-03-25T18:17:27;5.60;99.90
30250;DHT22;17064;47.974;13.826;2024-03-25T18:22:28;5.50;99.90
30250;DHT22;17064;47.974;13.826;2024-03-25T18:27:29;5.40;99.90
30250;DHT22;17064;47.974;13.826;2024-03-25T18:32:29;5.30;99.90
30250;DHT22;17064;47.974;13.826;2024-03-25T18:37:30;5.20;99.90
30250;DHT22;17064;47.974;13.826;2024-03-25T18:42:30;5.10;99.90
30250;DHT22;17064;47.974;13.826;2024-03-25T18:47:32;5.00;99.90
30250;DHT22;17064;47.974;13.826;2024-03-25T18:52:33;5.10;99.90
30250;DHT22;17064;47.974;13.826;2024-03-25T18:57:34;5.10;99.90
30250;DHT22;17064;47.974;13.826;2024-03-25T19:02:35;5.00;99.90
30250;DHT22;17064;47.974;13.826;2024-03-25T19:07:37;4.90;99.90
30250;DHT22;17064;47.974;13.826;2024-03-25T19:12:38;4.90;99.90
30250;DHT22;17064;47.974;13.826;2024-03-25T19:17:39;4.90;99.90
30250;DHT22;17064;47.974;13.826;2024-03-25T19:22:40;4.80;99.90
30250;DHT22;17064;47.974;13.826;2024-03-25T19:27:40;4.70;99.90
30250;DHT22;17064;47.974;13.826;2024-03-25T19:32:41;4.60;99.90
30250;DHT22;17064;47.974;13.826;2024-03-25T19:37:42;4.60;99.90
30250;DHT22;17064;47.974;13.826;2024-03-25T19:42:43;4.60;99.90
30250;DHT22;17064;47.974;13.826;2024-03-25T19:47:44;4.50;99.90
30250;DHT22;17064;47.974;13.826;2024-03-25T19:52:45;4.50;99.90
30250;DHT22;17064;47.974;13.826;2024-03-25T19:57:45;4.50;99.90
30250;DHT22;17064;47.974;13.826;2024-03-25T20:02:46;4.40;99.90
30250;DHT22;17064;47.974;13.826;2024-03-25T20:07:47;4.30;99.90
30250;DHT22;17064;47.974;13.826;2024-03-25T20:12:48;4.10;99.90
30250;DHT22;17064;47.974;13.826;2024-03-25T20:17:50;4.00;99.90
30250;DHT22;17064;47.974;13.826;2024-03-25T20:22:51;3.90;99.90
30250;DHT22;17064;47.974;13.826;2024-03-25T20:27:52;3.80;99.90
30250;DHT22;17064;47.974;13.826;2024-03-25T20:32:53;3.60;99.90
30250;DHT22;17064;47.974;13.826;2024-03-25T20:37:53;3.50;99.90
30250;DHT22;17064;47.974;13.826;2024-03-25T20:42:54;3.40;99.90
30250;DHT22;17064;47.974;13.826;2024-03-25T20:47:55;3.30;99.90
30250;DHT22;17064;47.974;13.826;2024-03-25T20:52:55;3.20;99.90
30250;DHT22;17064;47.974;13.826;2024-03-25T20:57:56;3.10;99.90
30250;DHT22;17064;47.974;13.826;2024-03-25T21:02:57;2.90;99.90
30250;DHT22;17064;47.974;13.826;2024-03-25T21:07:57;2.70;99.90
30250;DHT22;17064;47.974;13.826;2024-03-25T21:12:58;2.60;99.90
30250;DHT22;17064;47.974;13.826;2024-03-25T21:17:59;2.40;99.90
30250;DHT22;17064;47.974;13.826;2024-03-25T21:23:00;2.20;99.90
30250;DHT22;17064;47.974;13.826;2024-03-25T21:28:00;1.90;99.90
30250;DHT22;17064;47.974;13.826;2024-03-25T21:33:01;1.80;99.90
30250;DHT22;17064;47.974;13.826;2024-03-25T21:38:01;1.70;99.90
30250;DHT22;17064;47.974;13.826;2024-03-25T21:43:02;1.60;99.90
30250;DHT22;17064;47.974;13.826;2024-03-25T21:48:03;1.40;99.90
30250;DHT22;17064;47.974;13.826;2024-03-25T21:53:04;1.40;99.90
30250;DHT22;17064;47.974;13.826;2024-03-25T21:58:05;1.30;99.90
30250;DHT22;17064;47.974;13.826;2024-03-25T22:03:06;1.20;99.90
30250;DHT22;17064;47.974;13.826;2024-03-25T22:08:07;1.10;99.90
30250;DHT22;17064;47.974;13.826;2024-03-25T22:13:07;1.00;99.90
30250;DHT22;17064;47.974;13.826;2024-03-25T22:18:08;1.00;99.90
30250;DHT22;17064;47.974;13.826;2024-03-25T22:23:08;0.90;99.90
30250;DHT22;17064;47.974;13.826;2024-03-25T22:28:09;0.70;99.90
30250;DHT22;17064;47.974;13.826;2024-03-25T22:33:09;0.60;99.90
30250;DHT22;17064;47.974;13.826;2024-03-25T22:38:11;0.40;99.90
30250;DHT22;17064;47.974;13.826;2024-03-25T22:43:11;0.30;99.90
30250;DHT22;17064;47.974;13.826;2024-03-25T22:48:12;0.40;99.90
30250;DHT22;17064;47.974;13.826;2024-03-25T22:53:12;0.30;99.90
30250;DHT22;17064;47.974;13.826;2024-03-25T22:58:13;0.20;99.90
30250;DHT22;17064;47.974;13.826;2024-03-25T23:03:13;0.20;99.90
30250;DHT22;17064;47.974;13.826;2024-03-25T23:08:14;0.10;99.90
30250;DHT22;17064;47.974;13.826;2024-03-25T23:13:15;0.10;99.90
30250;DHT22;17064;47.974;13.826;2024-03-25T23:18:15;0.00;99.90
30250;DHT22;17064;47.974;13.826;2024-03-25T23:23:17;-0.10;99.90
30250;DHT22;17064;47.974;13.826;2024-03-25T23:28:17;-0.20;99.90
30250;DHT22;17064;47.974;13.826;2024-03-25T23:33:18;-0.20;99.90
30250;DHT22;17064;47.974;13.826;2024-03-25T23:38:18;-0.30;99.90
30250;DHT22;17064;47.974;13.826;2024-03-25T23:43:19;-0.30;99.90
30250;DHT22;17064;47.974;13.826;2024-03-25T23:48:23;-0.40;99.90
30250;DHT22;17064;47.974;13.826;2024-03-25T23:53:24;-0.40;99.90
30250;DHT22;17064;47.974;13.826;2024-03-25T23:58:24;-0.50;99.90
